createdAt,value
2019-02-06T06:26:00.301Z,2.10
2019-02-06T06:27:34.048Z,2.37
2019-02-06T06:29:07.910Z,2.30
2019-02-06T06:30:41.843Z,3.57
2019-02-06T06:32:15.810Z,2.27
2019-02-06T06:33:50.467Z,2.43
2019-02-06T06:35:25.363Z,2.80
2019-02-06T06:36:59.129Z,2.23
2019-02-06T06:38:33.049Z,2.47
2019-02-06T06:40:06.957Z,2.40
2019-02-06T06:41:40.950Z,2.17
2019-02-06T06:43:16.369Z,2.20
2019-02-06T06:44:48.682Z,2.43
2019-02-06T06:46:22.357Z,2.33
2019-02-06T06:47:56.144Z,2.00
2019-02-06T06:49:30.101Z,2.33
2019-02-06T06:51:03.879Z,2.23
2019-02-06T06:52:37.947Z,2.33
2019-02-06T06:54:11.952Z,2.77
2019-02-06T06:55:45.732Z,2.50
2019-02-06T06:57:19.794Z,2.60
2019-02-06T06:58:52.777Z,2.70
2019-02-06T07:00:28.804Z,2.33
2019-02-06T07:02:02.747Z,2.00
2019-02-06T07:03:35.789Z,2.37
2019-02-06T07:05:08.665Z,2.53
2019-02-06T07:06:42.529Z,3.00
2019-02-06T07:08:16.137Z,2.20
2019-02-06T07:09:49.219Z,2.90
2019-02-06T07:11:23.021Z,4.03
2019-02-06T07:13:27.173Z,2.90
2019-02-06T07:15:00.411Z,2.60
2019-02-06T07:16:34.037Z,3.00
2019-02-06T07:18:07.889Z,2.63
2019-02-06T07:19:40.902Z,3.23
2019-02-06T07:21:13.824Z,2.97
2019-02-06T07:22:47.667Z,4.10
2019-02-06T07:24:22.329Z,3.33
2019-02-06T07:25:56.237Z,3.97
2019-02-06T07:27:30.503Z,2.70
2019-02-06T07:29:04.291Z,3.17
2019-02-06T07:30:42.043Z,5.20
2019-02-06T07:32:16.050Z,2.37
2019-02-06T07:33:49.804Z,2.80
2019-02-06T07:35:23.516Z,2.67
2019-02-06T07:36:56.265Z,2.67
2019-02-06T07:38:30.232Z,2.77
2019-02-06T07:40:04.117Z,3.57
2019-02-06T07:41:38.279Z,3.67
2019-02-06T07:43:12.116Z,3.97
2019-02-06T07:44:45.170Z,2.53
2019-02-06T07:46:18.878Z,2.80
2019-02-06T07:47:53.028Z,4.40
2019-02-06T07:49:25.980Z,2.93
2019-02-06T07:50:59.777Z,2.37
2019-02-06T07:52:32.738Z,6.43
2019-02-06T07:54:06.733Z,3.00
2019-02-06T07:55:40.478Z,5.30
2019-02-06T07:57:13.473Z,3.83
2019-02-06T07:58:47.357Z,6.00
2019-02-06T08:00:22.113Z,2.93
2019-02-06T08:01:55.793Z,2.93
2019-02-06T08:03:29.571Z,4.17
2019-02-06T08:05:02.533Z,2.77
2019-02-06T08:06:36.272Z,2.87
2019-02-06T08:08:10.271Z,3.00
2019-02-06T08:09:45.165Z,4.63
2019-02-06T08:11:19.075Z,2.97
2019-02-06T08:12:52.055Z,2.93
2019-02-06T08:14:25.693Z,3.60
2019-02-06T08:15:59.598Z,2.83
2019-02-06T08:17:32.636Z,2.83
2019-02-06T08:19:06.484Z,2.77
2019-02-06T08:20:41.490Z,2.93
2019-02-06T08:22:14.186Z,3.13
2019-02-06T08:23:47.855Z,3.23
2019-02-06T08:25:22.609Z,2.77
2019-02-06T08:26:56.579Z,5.10
2019-02-06T08:28:29.448Z,2.70
2019-02-06T08:30:02.494Z,2.93
2019-02-06T08:31:36.222Z,3.87
2019-02-06T08:33:09.312Z,3.10
2019-02-06T08:34:43.319Z,2.90
2019-02-06T08:36:16.369Z,3.00
2019-02-06T08:37:50.251Z,5.77
2019-02-06T08:39:25.445Z,3.37
2019-02-06T08:40:59.185Z,3.27
2019-02-06T08:42:32.146Z,2.63
2019-02-06T08:44:05.063Z,3.20
2019-02-06T08:45:38.215Z,4.30
2019-02-06T08:47:11.805Z,2.80
2019-02-06T08:48:44.681Z,3.03
2019-02-06T08:50:18.582Z,4.30
2019-02-06T08:51:52.262Z,2.70
2019-02-06T08:53:26.179Z,3.07
2019-02-06T08:54:59.383Z,4.53
2019-02-06T08:56:33.273Z,2.90
2019-02-06T08:58:07.953Z,3.63
2019-02-06T08:59:41.628Z,3.20
2019-02-06T09:01:15.308Z,3.10
2019-02-06T09:02:49.380Z,4.00
2019-02-06T09:04:22.494Z,3.30
2019-02-06T09:06:06.399Z,6.53
2019-02-06T09:07:46.436Z,3.97
2019-02-06T09:09:24.286Z,2.80
2019-02-06T09:10:57.228Z,3.07
2019-02-06T09:12:31.099Z,3.57
2019-02-06T09:14:04.934Z,3.20
2019-02-06T09:15:48.070Z,3.00
2019-02-06T09:17:20.804Z,4.77
2019-02-06T09:18:54.758Z,2.93
2019-02-06T09:20:30.653Z,2.97
2019-02-06T09:22:03.657Z,2.77
2019-02-06T09:23:37.448Z,3.03
2019-02-06T09:25:11.254Z,3.77
2019-02-06T09:26:45.453Z,2.87
2019-02-06T09:28:24.503Z,3.87
2019-02-06T09:29:58.448Z,3.00
2019-02-06T09:31:32.223Z,2.90
2019-02-06T09:33:06.150Z,3.07
2019-02-06T09:34:40.901Z,2.70
2019-02-06T09:36:14.225Z,3.40
2019-02-06T09:37:47.977Z,2.50
2019-02-06T09:39:23.963Z,3.73
2019-02-06T09:40:57.680Z,3.80
2019-02-06T09:42:31.431Z,2.90
2019-02-06T09:44:05.735Z,3.57
2019-02-06T09:45:38.519Z,2.83
2019-02-06T09:47:12.225Z,3.73
2019-02-06T09:48:46.198Z,3.10
2019-02-06T09:50:21.422Z,2.73
2019-02-06T09:51:55.400Z,3.20
2019-02-06T09:53:28.426Z,2.70
2019-02-06T09:55:02.455Z,2.70
2019-02-06T09:56:36.393Z,3.10
2019-02-06T09:58:09.223Z,2.50
2019-02-06T09:59:41.918Z,2.90
2019-02-06T10:01:15.059Z,2.60
2019-02-06T10:02:49.498Z,2.70
2019-02-06T10:04:24.120Z,3.67
2019-02-06T10:05:57.952Z,3.10
2019-02-06T10:07:31.773Z,2.73
2019-02-06T10:09:04.697Z,4.00
2019-02-06T10:10:39.600Z,3.07
2019-02-06T10:12:12.540Z,4.10
2019-02-06T10:13:45.277Z,3.07
2019-02-06T10:15:19.026Z,2.53
2019-02-06T10:16:53.525Z,2.90
2019-02-06T10:18:27.598Z,3.30
2019-02-06T10:20:01.164Z,3.87
2019-02-06T10:21:35.044Z,3.00
2019-02-06T10:23:08.848Z,3.53
2019-02-06T10:24:41.867Z,4.47
2019-02-06T10:26:15.716Z,3.03
2019-02-06T10:27:48.700Z,2.63
2019-02-06T10:29:22.599Z,3.30
2019-02-06T10:30:58.430Z,3.10
2019-02-06T10:32:32.294Z,2.83
2019-02-06T10:34:06.208Z,2.70
2019-02-06T10:35:39.174Z,3.03
2019-02-06T10:37:12.890Z,2.77
2019-02-06T10:38:45.868Z,4.27
2019-02-06T10:40:18.835Z,3.13
2019-02-06T10:41:52.068Z,3.70
2019-02-06T10:43:32.058Z,3.33
2019-02-06T10:44:59.520Z,2.70
2019-02-06T10:46:33.516Z,2.60
2019-02-06T10:48:06.463Z,4.70
2019-02-06T10:49:40.263Z,2.70
2019-02-06T10:51:15.051Z,2.50
2019-02-06T10:52:48.781Z,2.80
2019-02-06T10:54:22.535Z,2.90
2019-02-06T10:55:56.561Z,2.90
2019-02-06T10:57:30.454Z,2.97
2019-02-06T10:59:04.382Z,2.60
2019-02-06T11:00:42.357Z,3.47
2019-02-06T11:02:16.134Z,2.63
2019-02-06T11:03:49.294Z,2.43
2019-02-06T11:05:22.413Z,2.40
2019-02-06T11:06:56.229Z,3.27
2019-02-06T11:08:30.245Z,2.63
2019-02-06T11:10:04.233Z,2.73
2019-02-06T11:11:37.436Z,2.50
2019-02-06T11:13:11.427Z,3.10
2019-02-06T11:14:45.248Z,2.60
2019-02-06T11:16:18.237Z,2.70
2019-02-06T11:17:52.018Z,3.73
2019-02-06T11:19:25.902Z,2.93
2019-02-06T11:21:00.065Z,3.10
2019-02-06T11:22:33.004Z,2.40
2019-02-06T11:24:06.801Z,3.57
2019-02-06T11:25:40.790Z,3.10
2019-02-06T11:27:14.388Z,2.67
2019-02-06T11:28:47.251Z,2.70
2019-02-06T11:30:21.041Z,2.70
2019-02-06T11:31:54.785Z,2.40
2019-02-06T11:33:30.591Z,3.27
2019-02-06T11:35:04.490Z,3.13
2019-02-06T11:36:38.176Z,2.85
2019-02-06T11:38:11.970Z,2.90
2019-02-06T11:39:57.262Z,2.80
2019-02-06T11:41:20.242Z,2.97
2019-02-06T11:42:54.263Z,2.87
2019-02-06T11:44:28.105Z,2.70
2019-02-06T11:46:01.643Z,3.10
2019-02-06T11:47:35.440Z,3.00
2019-02-06T11:49:09.446Z,2.43
2019-02-06T11:50:47.323Z,2.87
2019-02-06T11:52:21.956Z,3.13
2019-02-06T11:53:55.867Z,2.70
2019-02-06T11:55:32.808Z,2.87
2019-02-06T11:57:06.631Z,2.90
2019-02-06T11:58:39.503Z,2.83
2019-02-06T12:00:13.392Z,2.90
2019-02-06T12:01:52.458Z,3.07
2019-02-06T12:03:26.272Z,2.80
2019-02-06T12:04:59.383Z,2.40
2019-02-06T12:06:32.142Z,3.23
2019-02-06T12:08:05.099Z,3.43
2019-02-06T12:09:37.985Z,2.90
2019-02-06T12:11:11.799Z,2.90
2019-02-06T12:12:45.726Z,3.80
2019-02-06T12:14:18.637Z,2.73
2019-02-06T12:15:52.521Z,2.80
2019-02-06T12:17:26.721Z,2.87
2019-02-06T12:18:59.676Z,2.93
2019-02-06T12:20:36.676Z,3.10
2019-02-06T12:22:10.674Z,2.47
2019-02-06T12:23:44.470Z,2.60
2019-02-06T12:25:18.306Z,3.17
2019-02-06T12:26:51.056Z,3.60
2019-02-06T12:28:25.265Z,2.43
2019-02-06T12:30:00.317Z,2.60
2019-02-06T12:31:34.150Z,2.60
2019-02-06T12:33:07.946Z,3.43
2019-02-06T12:34:41.881Z,2.77
2019-02-06T12:36:15.780Z,2.73
2019-02-06T12:37:48.772Z,3.23
2019-02-06T12:39:24.881Z,2.93
2019-02-06T12:40:57.695Z,2.60
2019-02-06T12:42:31.397Z,2.60
2019-02-06T12:44:04.638Z,4.13
2019-02-06T12:45:39.545Z,2.70
2019-02-06T12:47:12.481Z,2.43
2019-02-06T12:48:46.286Z,2.70
2019-02-06T12:50:20.245Z,2.63
2019-02-06T12:51:54.154Z,2.70
2019-02-06T12:53:28.774Z,2.40
2019-02-06T12:55:02.649Z,2.37
2019-02-06T12:56:36.607Z,2.50
2019-02-06T12:58:09.483Z,3.00
2019-02-06T12:59:42.392Z,2.37
2019-02-06T13:01:15.362Z,2.53
2019-02-06T13:02:48.554Z,2.97
2019-02-06T13:04:22.996Z,2.40
2019-02-06T13:05:57.065Z,3.37
2019-02-06T13:07:31.052Z,2.40
2019-02-06T13:09:04.978Z,2.70
2019-02-06T13:10:37.876Z,2.87
2019-02-06T13:12:11.818Z,2.53
2019-02-06T13:13:45.486Z,2.73
2019-02-06T13:15:18.456Z,2.43
2019-02-06T13:16:51.223Z,2.63
2019-02-06T13:18:25.133Z,4.27
2019-02-06T13:19:59.545Z,3.00
2019-02-06T13:21:33.232Z,2.70
2019-02-06T13:23:06.232Z,2.53
2019-02-06T13:24:39.290Z,2.73
2019-02-06T13:26:13.104Z,3.10
2019-02-06T13:27:46.078Z,2.63
2019-02-06T13:29:20.850Z,2.70
2019-02-06T13:30:55.914Z,2.80
2019-02-06T13:32:30.152Z,2.47
2019-02-06T13:34:03.802Z,2.53
2019-02-06T13:35:38.580Z,2.90
2019-02-06T13:37:12.656Z,2.93
2019-02-06T13:38:47.508Z,2.60
2019-02-06T13:42:17.817Z,2.33
2019-02-06T13:43:51.838Z,4.20
2019-02-06T13:45:26.850Z,3.33
2019-02-06T13:46:59.765Z,2.33
2019-02-06T13:48:33.882Z,2.60
2019-02-06T13:50:07.631Z,4.43
2019-02-06T13:51:41.627Z,2.70
2019-02-06T13:53:15.658Z,3.27
2019-02-06T13:54:49.501Z,2.77
2019-02-06T13:56:23.436Z,3.83
2019-02-06T13:57:58.124Z,2.90
2019-02-06T13:59:30.910Z,4.17
2019-02-06T14:01:04.872Z,2.90
2019-02-06T14:02:38.763Z,2.97
2019-02-06T14:04:13.380Z,3.23
2019-02-06T14:05:48.391Z,3.30
2019-02-06T14:07:22.219Z,5.47
2019-02-06T14:08:56.011Z,5.20
2019-02-06T14:13:08.397Z,3.37
2019-02-06T14:14:42.403Z,3.10
2019-02-06T14:16:16.303Z,4.03
2019-02-06T14:17:50.239Z,3.10
2019-02-06T14:19:24.040Z,4.43
2019-02-06T14:20:58.261Z,4.40
2019-02-06T14:22:32.220Z,3.20
2019-02-06T14:24:29.275Z,2.77
2019-02-06T14:26:14.070Z,3.07
2019-02-06T14:27:58.456Z,2.87
2019-02-06T14:31:47.941Z,3.23
2019-02-06T14:33:39.071Z,2.60
2019-02-06T14:35:21.291Z,4.83
2019-02-06T14:37:27.856Z,3.33
2019-02-06T14:39:25.586Z,3.97
2019-02-06T14:41:22.877Z,5.27
2019-02-06T14:43:07.748Z,4.87
2019-02-06T14:45:01.908Z,3.43
2019-02-06T14:46:54.856Z,4.27
2019-02-06T14:48:43.095Z,3.20
2019-02-06T14:50:39.247Z,3.40
2019-02-06T14:52:28.053Z,4.80
2019-02-06T14:54:20.989Z,5.00
2019-02-06T14:56:14.030Z,3.57
2019-02-06T14:58:08.249Z,3.97
2019-02-06T15:00:13.398Z,3.73
2019-02-06T15:01:57.830Z,5.40
2019-02-06T15:05:49.536Z,3.53
2019-02-06T15:07:39.634Z,4.53
2019-02-06T15:09:54.944Z,3.93
2019-02-06T15:11:39.944Z,3.43
2019-02-06T15:13:30.256Z,3.63
2019-02-06T15:15:22.585Z,4.20
2019-02-06T15:19:14.166Z,3.83
2019-02-06T15:23:08.983Z,3.30
2019-02-06T15:25:58.426Z,3.80
2019-02-06T15:27:48.311Z,3.97
2019-02-06T15:29:46.467Z,5.80
2019-02-06T15:32:37.068Z,3.70
2019-02-06T15:34:57.421Z,4.70
2019-02-06T15:36:50.394Z,4.13
2019-02-06T15:38:34.465Z,3.40
2019-02-06T15:40:37.369Z,4.63
2019-02-06T15:42:22.351Z,3.90
2019-02-06T15:44:15.514Z,4.43
2019-02-06T15:46:03.539Z,5.83
2019-02-06T15:47:58.315Z,6.20
2019-02-06T15:49:48.437Z,4.20
2019-02-06T15:51:46.446Z,6.07
2019-02-06T15:54:02.003Z,6.20
2019-02-06T15:56:50.092Z,5.67
2019-02-06T15:58:34.762Z,4.00
2019-02-06T16:01:51.049Z,5.80
2019-02-06T16:04:58.885Z,4.23
2019-02-06T16:07:01.216Z,4.90
2019-02-06T16:08:45.399Z,3.63
2019-02-06T16:12:36.453Z,4.40
2019-02-06T16:14:37.873Z,5.17
2019-02-06T16:18:27.496Z,9.03
2019-02-06T16:20:18.614Z,4.20
2019-02-06T16:22:07.719Z,5.77
2019-02-06T16:25:21.086Z,6.17
2019-02-06T16:27:16.081Z,5.93
2019-02-06T16:29:00.218Z,5.37
2019-02-06T16:30:44.559Z,4.73
2019-02-06T16:32:32.343Z,8.47
2019-02-06T16:34:19.346Z,6.33
2019-02-06T16:36:08.650Z,5.37
2019-02-06T16:39:56.185Z,4.83
2019-02-06T16:41:41.556Z,7.73
2019-02-06T16:43:26.770Z,5.00
2019-02-06T16:47:22.871Z,7.20
2019-02-06T16:49:28.095Z,4.77
2019-02-06T16:51:21.287Z,5.20
2019-02-06T16:55:13.646Z,4.40
2019-02-06T16:57:06.284Z,4.37
2019-02-06T16:58:51.304Z,4.20
2019-02-06T17:02:43.144Z,5.87
2019-02-06T17:05:00.661Z,5.77
2019-02-06T17:07:00.162Z,5.20
2019-02-06T17:10:55.620Z,5.13
2019-02-06T17:14:49.400Z,4.67
2019-02-06T17:16:39.270Z,6.20
2019-02-06T17:19:25.206Z,5.10
2019-02-06T17:22:44.672Z,4.28
2019-02-06T17:24:30.391Z,4.20
2019-02-06T17:26:34.430Z,4.80
2019-02-06T17:28:24.428Z,3.67
2019-02-06T17:31:12.913Z,5.67
2019-02-06T17:33:11.809Z,5.07
2019-02-06T17:37:00.498Z,5.97
2019-02-06T17:40:51.510Z,4.58
2019-02-06T17:42:45.653Z,4.00
2019-02-06T17:44:47.960Z,5.37
2019-02-06T17:46:45.461Z,4.40
2019-02-06T17:48:54.770Z,5.47
2019-02-06T17:51:01.015Z,5.53
2019-02-06T17:52:47.818Z,4.37
2019-02-06T17:55:28.671Z,4.03
2019-02-06T17:57:01.548Z,4.20
2019-02-06T17:58:35.383Z,5.57
2019-02-06T18:00:09.278Z,4.37
2019-02-06T18:01:52.409Z,3.93
2019-02-06T18:03:27.506Z,3.67
2019-02-06T18:05:05.303Z,4.27
2019-02-06T18:06:39.227Z,5.03
2019-02-06T18:08:13.329Z,4.57
2019-02-06T18:09:48.033Z,3.97
2019-02-06T18:11:22.118Z,3.97
2019-02-06T18:12:56.042Z,5.73
2019-02-06T18:14:30.068Z,5.37
2019-02-06T18:16:04.699Z,4.63
2019-02-06T18:17:39.314Z,3.80
2019-02-06T18:19:13.824Z,3.57
2019-02-06T18:20:46.901Z,4.30
2019-02-06T18:22:22.956Z,4.40
2019-02-06T18:23:56.737Z,3.80
2019-02-06T18:25:30.454Z,3.60
2019-02-06T18:27:07.225Z,4.57
2019-02-06T18:28:40.855Z,3.83
2019-02-06T18:30:14.707Z,3.57
2019-02-06T18:31:49.144Z,4.43
2019-02-06T18:33:23.874Z,3.37
2019-02-06T18:34:57.756Z,3.60
2019-02-06T18:36:31.901Z,3.50
2019-02-06T18:38:05.844Z,5.93
2019-02-06T18:39:39.771Z,3.20
2019-02-06T18:41:13.352Z,3.23
2019-02-06T18:42:47.531Z,3.27
2019-02-06T18:44:21.557Z,4.10
2019-02-06T18:45:55.411Z,3.43
2019-02-06T18:47:29.570Z,3.33
2019-02-06T18:49:04.006Z,3.20
2019-02-06T18:50:39.024Z,3.57
2019-02-06T18:53:47.868Z,3.53
2019-02-06T18:55:22.590Z,3.27
2019-02-06T18:56:56.515Z,3.37
2019-02-06T18:58:31.718Z,3.43
2019-02-06T19:00:05.869Z,3.40
2019-02-06T19:01:40.876Z,3.60
2019-02-06T19:03:16.504Z,3.73
2019-02-06T19:04:50.495Z,3.50
2019-02-06T19:06:24.418Z,3.80
2019-02-06T19:07:58.320Z,3.07
2019-02-06T19:09:34.305Z,3.17
2019-02-06T19:11:07.432Z,3.00
2019-02-06T19:12:47.905Z,2.97
2019-02-06T19:14:15.553Z,3.30
2019-02-06T19:15:56.168Z,5.53
2019-02-06T19:17:23.770Z,3.13
2019-02-06T19:18:58.387Z,3.17
2019-02-06T19:20:35.754Z,2.97
2019-02-06T19:22:08.311Z,3.00
2019-02-06T19:23:42.141Z,3.07
2019-02-06T19:25:15.818Z,2.60
2019-02-06T19:26:49.722Z,3.00
2019-02-06T19:28:23.445Z,2.67
2019-02-06T19:29:57.727Z,3.13
2019-02-06T19:31:32.709Z,2.77
2019-02-06T19:33:06.791Z,2.60
2019-02-06T19:34:41.709Z,2.97
2019-02-06T19:36:15.802Z,2.40
2019-02-06T19:37:50.333Z,2.70
2019-02-06T19:39:25.799Z,2.83
2019-02-06T19:40:59.749Z,2.97
2019-02-06T19:42:34.415Z,2.53
2019-02-06T19:44:10.721Z,2.60
2019-02-06T19:45:42.382Z,2.50
2019-02-06T19:47:17.214Z,2.67
2019-02-06T19:48:51.294Z,2.50
2019-02-06T19:50:28.210Z,2.53
2019-02-06T19:52:02.933Z,2.30
2019-02-06T19:53:36.767Z,2.90
2019-02-06T19:55:09.916Z,2.17
2019-02-06T19:56:43.937Z,2.43
2019-02-06T19:58:18.039Z,2.50
2019-02-06T19:59:52.649Z,2.20
2019-02-06T20:01:27.002Z,2.43
2019-02-06T20:03:00.945Z,2.37
2019-02-06T20:04:34.970Z,2.40
2019-02-06T20:06:08.872Z,2.70
2019-02-06T20:07:43.166Z,2.20
2019-02-06T20:09:18.114Z,2.40
2019-02-06T20:10:55.288Z,2.30
2019-02-06T20:12:30.051Z,2.10
2019-02-06T20:14:04.015Z,3.03
2019-02-06T20:15:37.705Z,2.13
2019-02-06T20:17:12.581Z,2.77
2019-02-06T20:18:46.613Z,2.17
2019-02-06T20:20:24.852Z,3.07
2019-02-06T20:21:56.086Z,2.40
2019-02-06T20:23:30.090Z,3.13
2019-02-06T20:25:03.891Z,2.50
2019-02-06T20:26:37.876Z,2.20
2019-02-06T20:28:11.799Z,2.70
2019-02-06T20:29:45.699Z,2.50
2019-02-06T20:31:19.565Z,2.70
2019-02-06T20:32:54.405Z,2.10
2019-02-06T20:34:29.066Z,2.50
2019-02-06T20:36:04.289Z,2.00
2019-02-06T20:37:39.105Z,2.47
2019-02-06T20:39:13.249Z,2.43
2019-02-06T20:40:49.530Z,2.50
2019-02-06T20:42:24.270Z,2.30
2019-02-06T20:43:59.117Z,3.03
2019-02-06T20:45:33.120Z,2.70
2019-02-06T20:47:07.226Z,2.67
2019-02-06T20:48:41.196Z,2.10
2019-02-06T20:50:15.148Z,2.40
2019-02-06T20:51:49.855Z,2.37
2019-02-06T20:53:23.555Z,2.50
2019-02-06T20:54:57.535Z,2.60
2019-02-06T20:56:31.233Z,2.00
2019-02-06T20:58:05.262Z,1.93
2019-02-06T20:59:38.328Z,2.20
2019-02-06T21:01:12.556Z,2.43
2019-02-06T21:02:46.453Z,2.20
2019-02-06T21:04:20.519Z,2.00
2019-02-06T21:05:55.266Z,1.87
2019-02-06T21:07:29.188Z,2.10
2019-02-06T21:09:04.055Z,2.30
2019-02-06T21:10:41.009Z,2.40
2019-02-06T21:12:14.916Z,2.60
2019-02-06T21:13:48.970Z,2.60
2019-02-06T21:15:22.996Z,2.57
2019-02-06T21:16:57.003Z,2.23
2019-02-06T21:18:30.888Z,2.53
2019-02-06T21:20:04.913Z,2.57
2019-02-06T21:21:39.651Z,1.90
2019-02-06T21:23:13.419Z,2.23
2019-02-06T21:24:47.538Z,2.40
2019-02-06T21:26:21.453Z,2.33
2019-02-06T21:27:55.566Z,2.23
2019-02-06T21:29:30.377Z,1.97
2019-02-06T21:31:04.372Z,1.80
2019-02-06T21:32:39.404Z,2.20
2019-02-06T21:34:13.287Z,2.10
2019-02-06T21:35:47.290Z,2.17
2019-02-06T21:37:20.909Z,2.40
2019-02-06T21:38:54.981Z,2.33
2019-02-06T21:40:32.916Z,2.47
2019-02-06T21:42:07.017Z,1.83
2019-02-06T21:43:44.226Z,2.20
2019-02-06T21:45:14.925Z,2.13
2019-02-06T21:46:48.929Z,1.90
2019-02-06T21:48:23.753Z,1.97
2019-02-06T21:49:57.866Z,2.50
2019-02-06T21:51:33.918Z,2.40
2019-02-06T21:53:09.802Z,2.30
2019-02-06T21:54:43.870Z,2.00
2019-02-06T21:56:17.551Z,2.10
2019-02-06T21:57:51.586Z,2.30
2019-02-06T21:59:25.565Z,1.67
2019-02-06T22:01:01.526Z,2.20
2019-02-06T22:02:34.609Z,2.00
2019-02-06T22:04:07.493Z,2.10
2019-02-06T22:05:42.284Z,1.90
2019-02-06T22:07:16.212Z,2.40
2019-02-06T22:08:50.017Z,2.00
2019-02-06T22:10:25.028Z,1.77
2019-02-06T22:11:59.121Z,2.20
2019-02-06T22:13:33.237Z,2.00
2019-02-06T22:15:07.567Z,1.90
2019-02-06T22:16:42.353Z,1.93
2019-02-06T22:18:16.477Z,2.10
2019-02-06T22:19:50.505Z,1.90
2019-02-06T22:21:24.578Z,2.07
2019-02-06T22:22:58.581Z,2.00
2019-02-06T22:24:33.234Z,2.20
2019-02-06T22:26:08.160Z,1.90
2019-02-06T22:27:42.075Z,2.20
2019-02-06T22:29:16.057Z,2.80
2019-02-06T22:30:50.913Z,1.90
2019-02-06T22:32:23.912Z,2.10
2019-02-06T22:33:57.037Z,2.20
2019-02-06T22:35:31.862Z,2.27
2019-02-06T22:37:04.828Z,2.80
2019-02-06T22:38:38.816Z,2.10
2019-02-06T22:40:13.061Z,1.70
2019-02-06T22:41:46.805Z,2.20
2019-02-06T22:43:20.886Z,1.90
2019-02-06T22:44:55.093Z,2.00
2019-02-06T22:46:29.760Z,2.33
2019-02-06T22:48:03.693Z,2.10
2019-02-06T22:49:37.514Z,2.30
2019-02-06T22:51:10.596Z,2.10
2019-02-06T22:52:44.602Z,2.57
2019-02-06T22:54:18.378Z,2.10
2019-02-06T22:55:52.318Z,2.37
2019-02-06T22:57:26.299Z,2.23
2019-02-06T22:59:00.620Z,2.40
2019-02-06T23:00:53.401Z,2.00
2019-02-06T23:02:27.473Z,2.20
2019-02-06T23:04:04.651Z,1.93
2019-02-06T23:05:38.569Z,2.20
2019-02-06T23:07:12.503Z,1.97
2019-02-06T23:08:46.395Z,2.37
2019-02-06T23:10:21.065Z,2.30
2019-02-06T23:11:53.823Z,2.07
2019-02-06T23:13:27.424Z,2.30
2019-02-06T23:15:01.219Z,2.67
2019-02-06T23:16:35.153Z,2.23
2019-02-06T23:18:09.033Z,2.13
2019-02-06T23:19:42.821Z,2.00
2019-02-06T23:21:16.842Z,2.43
2019-02-06T23:22:50.678Z,2.43
2019-02-06T23:24:24.874Z,2.90
2019-02-06T23:25:58.695Z,2.40
2019-02-06T23:27:32.905Z,3.07
2019-02-06T23:29:07.770Z,2.50
2019-02-06T23:30:41.383Z,1.93
2019-02-06T23:32:15.408Z,2.20
2019-02-06T23:33:49.515Z,1.93
2019-02-06T23:35:23.375Z,2.13
2019-02-06T23:36:57.280Z,2.17
2019-02-06T23:38:31.138Z,1.80
2019-02-06T23:40:05.212Z,2.00
2019-02-06T23:41:39.410Z,2.70
2019-02-06T23:43:13.439Z,1.70
2019-02-06T23:44:48.177Z,2.40
2019-02-06T23:46:22.244Z,2.60
2019-02-06T23:47:56.274Z,2.00
2019-02-06T23:49:30.585Z,2.33
2019-02-06T23:51:05.510Z,2.80
2019-02-06T23:52:39.524Z,2.00
2019-02-06T23:54:13.398Z,2.30
2019-02-06T23:55:47.214Z,2.00
2019-02-06T23:57:21.204Z,2.10
2019-02-06T23:58:55.419Z,2.07
